sensor_id;sensor_type;location;lat;lon;timestamp;temperature;humidity
23289;DHT22;11813;50.834;4.280;2023-06-22T00:01:56;22.70;99.90
23289;DHT22;11813;50.834;4.280;2023-06-22T00:04:22;22.60;99.90
23289;DHT22;11813;50.834;4.280;2023-06-22T00:06:47;22.60;99.90
23289;DHT22;11813;50.834;4.280;2023-06-22T00:09:13;22.70;99.90
23289;DHT22;11813;50.834;4.280;2023-06-22T00:11:38;22.60;99.90
23289;DHT22;11813;50.834;4.280;2023-06-22T00:14:04;22.70;99.90
23289;DHT22;11813;50.834;4.280;2023-06-22T00:16:32;22.60;99.90
23289;DHT22;11813;50.834;4.280;2023-06-22T00:18:58;22.60;99.90
23289;DHT22;11813;50.834;4.280;2023-06-22T00:21:26;22.60;99.90
23289;DHT22;11813;50.834;4.280;2023-06-22T00:23:52;22.60;99.90
23289;DHT22;11813;50.834;4.280;2023-06-22T00:26:18;22.60;99.90
23289;DHT22;11813;50.834;4.280;2023-06-22T00:28:44;22.60;99.90
23289;DHT22;11813;50.834;4.280;2023-06-22T00:31:09;22.60;99.90
23289;DHT22;11813;50.834;4.280;2023-06-22T00:33:35;22.60;99.90
23289;DHT22;11813;50.834;4.280;2023-06-22T00:36:00;22.50;99.90
23289;DHT22;11813;50.834;4.280;2023-06-22T00:38:28;22.50;99.90
23289;DHT22;11813;50.834;4.280;2023-06-22T00:40:54;22.50;99.90
23289;DHT22;11813;50.834;4.280;2023-06-22T00:43:19;22.40;99.90
23289;DHT22;11813;50.834;4.280;2023-06-22T00:45:45;22.40;99.90
23289;DHT22;11813;50.834;4.280;2023-06-22T00:48:12;22.40;99.90
23289;DHT22;11813;50.834;4.280;2023-06-22T00:50:38;22.30;99.90
23289;DHT22;11813;50.834;4.280;2023-06-22T00:53:06;22.30;99.90
23289;DHT22;11813;50.834;4.280;2023-06-22T00:55:41;22.40;99.90
23289;DHT22;11813;50.834;4.280;2023-06-22T00:58:09;22.30;99.90
23289;DHT22;11813;50.834;4.280;2023-06-22T01:00:36;22.30;99.90
23289;DHT22;11813;50.834;4.280;2023-06-22T01:03:03;22.40;99.90
23289;DHT22;11813;50.834;4.280;2023-06-22T01:05:29;22.40;99.90
23289;DHT22;11813;50.834;4.280;2023-06-22T01:08:23;22.40;99.90
23289;DHT22;11813;50.834;4.280;2023-06-22T01:11:23;22.40;99.90
23289;DHT22;11813;50.834;4.280;2023-06-22T01:14:00;22.40;99.90
23289;DHT22;11813;50.834;4.280;2023-06-22T01:16:31;22.30;99.90
23289;DHT22;11813;50.834;4.280;2023-06-22T01:19:01;22.30;99.90
23289;DHT22;11813;50.834;4.280;2023-06-22T01:21:30;22.40;99.90
23289;DHT22;11813;50.834;4.280;2023-06-22T01:24:22;22.30;99.90
23289;DHT22;11813;50.834;4.280;2023-06-22T01:27:04;22.30;99.90
23289;DHT22;11813;50.834;4.280;2023-06-22T01:29:32;22.30;99.90
23289;DHT22;11813;50.834;4.280;2023-06-22T01:31:59;22.30;99.90
23289;DHT22;11813;50.834;4.280;2023-06-22T01:34:25;22.30;99.90
23289;DHT22;11813;50.834;4.280;2023-06-22T01:36:52;22.10;99.90
23289;DHT22;11813;50.834;4.280;2023-06-22T01:39:18;22.10;99.90
23289;DHT22;11813;50.834;4.280;2023-06-22T01:41:44;22.10;99.90
23289;DHT22;11813;50.834;4.280;2023-06-22T01:44:10;22.20;99.90
23289;DHT22;11813;50.834;4.280;2023-06-22T01:46:38;22.10;99.90
23289;DHT22;11813;50.834;4.280;2023-06-22T01:49:05;22.10;99.90
23289;DHT22;11813;50.834;4.280;2023-06-22T01:51:31;22.10;99.90
23289;DHT22;11813;50.834;4.280;2023-06-22T01:53:57;22.10;99.90
23289;DHT22;11813;50.834;4.280;2023-06-22T01:56:22;22.10;99.90
23289;DHT22;11813;50.834;4.280;2023-06-22T01:59:25;22.10;99.90
23289;DHT22;11813;50.834;4.280;2023-06-22T02:02:07;22.00;99.90
23289;DHT22;11813;50.834;4.280;2023-06-22T02:04:38;22.00;99.90
23289;DHT22;11813;50.834;4.280;2023-06-22T02:07:10;22.00;99.90
23289;DHT22;11813;50.834;4.280;2023-06-22T02:09:38;22.00;99.90
23289;DHT22;11813;50.834;4.280;2023-06-22T02:12:08;21.90;99.90
23289;DHT22;11813;50.834;4.280;2023-06-22T02:14:36;22.00;99.90
23289;DHT22;11813;50.834;4.280;2023-06-22T02:17:02;22.00;99.90
23289;DHT22;11813;50.834;4.280;2023-06-22T02:19:30;21.90;99.90
23289;DHT22;11813;50.834;4.280;2023-06-22T02:21:58;21.90;99.90
23289;DHT22;11813;50.834;4.280;2023-06-22T02:24:24;21.90;99.90
23289;DHT22;11813;50.834;4.280;2023-06-22T02:26:49;21.80;99.90
23289;DHT22;11813;50.834;4.280;2023-06-22T02:29:15;21.80;99.90
23289;DHT22;11813;50.834;4.280;2023-06-22T02:31:40;21.80;99.90
23289;DHT22;11813;50.834;4.280;2023-06-22T02:34:06;21.80;99.90
23289;DHT22;11813;50.834;4.280;2023-06-22T02:36:32;21.70;99.90
23289;DHT22;11813;50.834;4.280;2023-06-22T02:38:58;21.60;99.90
23289;DHT22;11813;50.834;4.280;2023-06-22T02:41:26;21.70;99.90
23289;DHT22;11813;50.834;4.280;2023-06-22T02:43:52;21.60;99.90
23289;DHT22;11813;50.834;4.280;2023-06-22T02:46:18;21.70;99.90
23289;DHT22;11813;50.834;4.280;2023-06-22T02:48:43;21.70;99.90
23289;DHT22;11813;50.834;4.280;2023-06-22T02:51:09;21.70;99.90
23289;DHT22;11813;50.834;4.280;2023-06-22T02:53:35;21.70;99.90
23289;DHT22;11813;50.834;4.280;2023-06-22T02:56:03;21.80;99.90
23289;DHT22;11813;50.834;4.280;2023-06-22T02:58:32;21.80;99.90
23289;DHT22;11813;50.834;4.280;2023-06-22T03:01:06;21.70;99.90
23289;DHT22;11813;50.834;4.280;2023-06-22T03:03:32;21.70;99.90
23289;DHT22;11813;50.834;4.280;2023-06-22T03:05:57;21.60;99.90
23289;DHT22;11813;50.834;4.280;2023-06-22T03:08:23;21.60;99.90
23289;DHT22;11813;50.834;4.280;2023-06-22T03:10:49;21.60;99.90
23289;DHT22;11813;50.834;4.280;2023-06-22T03:13:14;21.40;99.90
23289;DHT22;11813;50.834;4.280;2023-06-22T03:15:40;21.50;99.90
23289;DHT22;11813;50.834;4.280;2023-06-22T03:18:06;21.60;99.90
23289;DHT22;11813;50.834;4.280;2023-06-22T03:20:31;21.60;99.90
23289;DHT22;11813;50.834;4.280;2023-06-22T03:22:59;21.60;99.90
23289;DHT22;11813;50.834;4.280;2023-06-22T03:25:24;21.60;99.90
23289;DHT22;11813;50.834;4.280;2023-06-22T03:27:50;21.60;99.90
23289;DHT22;11813;50.834;4.280;2023-06-22T03:30:15;21.60;99.90
23289;DHT22;11813;50.834;4.280;2023-06-22T03:32:41;21.60;99.90
23289;DHT22;11813;50.834;4.280;2023-06-22T03:35:08;21.60;99.90
23289;DHT22;11813;50.834;4.280;2023-06-22T03:37:34;21.50;99.90
23289;DHT22;11813;50.834;4.280;2023-06-22T03:40:00;21.50;99.90
23289;DHT22;11813;50.834;4.280;2023-06-22T03:42:26;21.60;99.90
23289;DHT22;11813;50.834;4.280;2023-06-22T03:44:51;21.30;99.90
23289;DHT22;11813;50.834;4.280;2023-06-22T03:47:17;21.40;99.90
23289;DHT22;11813;50.834;4.280;2023-06-22T03:49:43;21.40;99.90
23289;DHT22;11813;50.834;4.280;2023-06-22T03:52:09;21.50;99.90
23289;DHT22;11813;50.834;4.280;2023-06-22T03:54:36;21.40;99.90
23289;DHT22;11813;50.834;4.280;2023-06-22T03:57:02;21.50;99.90
23289;DHT22;11813;50.834;4.280;2023-06-22T03:59:27;21.50;99.90
23289;DHT22;11813;50.834;4.280;2023-06-22T04:01:53;21.50;99.90
23289;DHT22;11813;50.834;4.280;2023-06-22T04:04:20;21.50;99.90
23289;DHT22;11813;50.834;4.280;2023-06-22T04:06:45;21.60;99.90
23289;DHT22;11813;50.834;4.280;2023-06-22T04:09:11;21.60;99.90
23289;DHT22;11813;50.834;4.280;2023-06-22T04:11:37;21.50;99.90
23289;DHT22;11813;50.834;4.280;2023-06-22T04:14:02;21.50;99.90
23289;DHT22;11813;50.834;4.280;2023-06-22T04:16:28;21.60;99.90
23289;DHT22;11813;50.834;4.280;2023-06-22T04:18:53;21.70;99.90
23289;DHT22;11813;50.834;4.280;2023-06-22T04:21:19;21.70;99.90
23289;DHT22;11813;50.834;4.280;2023-06-22T04:23:45;21.70;99.90
23289;DHT22;11813;50.834;4.280;2023-06-22T04:26:12;21.80;99.90
23289;DHT22;11813;50.834;4.280;2023-06-22T04:28:37;21.90;99.90
23289;DHT22;11813;50.834;4.280;2023-06-22T04:31:03;21.80;99.90
23289;DHT22;11813;50.834;4.280;2023-06-22T04:33:30;21.80;99.90
23289;DHT22;11813;50.834;4.280;2023-06-22T04:35:55;21.80;99.90
23289;DHT22;11813;50.834;4.280;2023-06-22T04:38:26;21.80;99.90
23289;DHT22;11813;50.834;4.280;2023-06-22T04:40:52;21.70;99.90
23289;DHT22;11813;50.834;4.280;2023-06-22T04:43:19;21.70;99.90
23289;DHT22;11813;50.834;4.280;2023-06-22T04:45:44;21.70;99.90
23289;DHT22;11813;50.834;4.280;2023-06-22T04:48:10;21.80;99.90
23289;DHT22;11813;50.834;4.280;2023-06-22T04:50:41;21.80;99.90
23289;DHT22;11813;50.834;4.280;2023-06-22T04:53:08;21.90;99.90
23289;DHT22;11813;50.834;4.280;2023-06-22T04:55:35;21.90;99.90
23289;DHT22;11813;50.834;4.280;2023-06-22T04:58:03;21.90;99.90
23289;DHT22;11813;50.834;4.280;2023-06-22T05:00:30;21.90;99.90
23289;DHT22;11813;50.834;4.280;2023-06-22T05:02:56;22.00;99.90
23289;DHT22;11813;50.834;4.280;2023-06-22T05:05:23;22.00;99.90
23289;DHT22;11813;50.834;4.280;2023-06-22T05:07:51;21.90;99.90
23289;DHT22;11813;50.834;4.280;2023-06-22T05:10:19;22.00;99.90
23289;DHT22;11813;50.834;4.280;2023-06-22T05:12:45;22.10;99.90
23289;DHT22;11813;50.834;4.280;2023-06-22T05:15:11;22.10;99.90
23289;DHT22;11813;50.834;4.280;2023-06-22T05:17:37;22.20;99.90
23289;DHT22;11813;50.834;4.280;2023-06-22T05:20:12;22.20;99.90
23289;DHT22;11813;50.834;4.280;2023-06-22T05:22:38;22.30;99.90
23289;DHT22;11813;50.834;4.280;2023-06-22T05:25:07;22.30;99.90
23289;DHT22;11813;50.834;4.280;2023-06-22T05:27:33;22.30;99.90
23289;DHT22;11813;50.834;4.280;2023-06-22T05:29:59;22.30;99.90
23289;DHT22;11813;50.834;4.280;2023-06-22T05:32:24;22.30;99.90
23289;DHT22;11813;50.834;4.280;2023-06-22T05:34:50;22.20;99.90
23289;DHT22;11813;50.834;4.280;2023-06-22T05:37:15;22.20;99.90
23289;DHT22;11813;50.834;4.280;2023-06-22T05:39:41;22.20;99.90
23289;DHT22;11813;50.834;4.280;2023-06-22T05:42:07;22.20;99.90
23289;DHT22;11813;50.834;4.280;2023-06-22T05:44:33;22.20;99.90
23289;DHT22;11813;50.834;4.280;2023-06-22T05:46:59;22.10;99.90
23289;DHT22;11813;50.834;4.280;2023-06-22T05:49:24;22.10;99.90
23289;DHT22;11813;50.834;4.280;2023-06-22T05:51:55;22.20;99.90
23289;DHT22;11813;50.834;4.280;2023-06-22T05:54:22;22.20;99.90
23289;DHT22;11813;50.834;4.280;2023-06-22T05:56:47;22.20;99.90
23289;DHT22;11813;50.834;4.280;2023-06-22T05:59:13;22.20;99.90
23289;DHT22;11813;50.834;4.280;2023-06-22T06:01:38;22.20;99.90
23289;DHT22;11813;50.834;4.280;2023-06-22T06:04:05;22.10;99.90
23289;DHT22;11813;50.834;4.280;2023-06-22T06:06:33;22.20;99.90
23289;DHT22;11813;50.834;4.280;2023-06-22T06:09:03;22.10;99.90
23289;DHT22;11813;50.834;4.280;2023-06-22T06:11:28;22.10;99.90
23289;DHT22;11813;50.834;4.280;2023-06-22T06:13:54;22.00;99.90
23289;DHT22;11813;50.834;4.280;2023-06-22T06:16:20;22.00;99.90
23289;DHT22;11813;50.834;4.280;2023-06-22T06:18:45;21.90;99.90
23289;DHT22;11813;50.834;4.280;2023-06-22T06:21:11;21.80;99.90
23289;DHT22;11813;50.834;4.280;2023-06-22T06:23:36;21.80;99.90
23289;DHT22;11813;50.834;4.280;2023-06-22T06:26:02;21.80;99.90
23289;DHT22;11813;50.834;4.280;2023-06-22T06:28:27;21.80;99.90
23289;DHT22;11813;50.834;4.280;2023-06-22T06:30:53;21.80;99.90
23289;DHT22;11813;50.834;4.280;2023-06-22T06:33:19;21.80;99.90
23289;DHT22;11813;50.834;4.280;2023-06-22T06:35:46;21.70;99.90
23289;DHT22;11813;50.834;4.280;2023-06-22T06:38:11;21.80;99.90
23289;DHT22;11813;50.834;4.280;2023-06-22T06:40:37;21.90;99.90
23289;DHT22;11813;50.834;4.280;2023-06-22T06:43:03;21.90;99.90
23289;DHT22;11813;50.834;4.280;2023-06-22T06:45:28;21.90;99.90
23289;DHT22;11813;50.834;4.280;2023-06-22T06:47:56;21.70;99.90
23289;DHT22;11813;50.834;4.280;2023-06-22T06:50:22;21.80;99.90
23289;DHT22;11813;50.834;4.280;2023-06-22T06:52:47;21.80;99.90
23289;DHT22;11813;50.834;4.280;2023-06-22T06:55:15;21.80;99.90
23289;DHT22;11813;50.834;4.280;2023-06-22T06:57:41;21.90;99.90
23289;DHT22;11813;50.834;4.280;2023-06-22T07:00:09;21.80;99.90
23289;DHT22;11813;50.834;4.280;2023-06-22T07:02:42;21.90;99.90
23289;DHT22;11813;50.834;4.280;2023-06-22T07:05:09;21.90;99.90
23289;DHT22;11813;50.834;4.280;2023-06-22T07:07:35;22.10;99.90
23289;DHT22;11813;50.834;4.280;2023-06-22T07:10:02;22.10;99.90
23289;DHT22;11813;50.834;4.280;2023-06-22T07:12:28;22.20;99.90
23289;DHT22;11813;50.834;4.280;2023-06-22T07:14:56;22.20;99.90
23289;DHT22;11813;50.834;4.280;2023-06-22T07:17:25;22.30;99.90
23289;DHT22;11813;50.834;4.280;2023-06-22T07:19:51;22.50;99.90
23289;DHT22;11813;50.834;4.280;2023-06-22T07:22:17;22.50;99.90
23289;DHT22;11813;50.834;4.280;2023-06-22T07:24:42;22.60;99.90
23289;DHT22;11813;50.834;4.280;2023-06-22T07:27:08;22.50;99.90
23289;DHT22;11813;50.834;4.280;2023-06-22T07:29:36;22.40;99.90
23289;DHT22;11813;50.834;4.280;2023-06-22T07:32:02;22.50;99.90
23289;DHT22;11813;50.834;4.280;2023-06-22T07:34:30;22.40;99.90
23289;DHT22;11813;50.834;4.280;2023-06-22T07:36:55;22.30;99.90
23289;DHT22;11813;50.834;4.280;2023-06-22T07:39:21;22.20;99.90
23289;DHT22;11813;50.834;4.280;2023-06-22T07:41:51;22.20;99.90
23289;DHT22;11813;50.834;4.280;2023-06-22T07:44:16;22.30;99.90
23289;DHT22;11813;50.834;4.280;2023-06-22T07:46:42;22.40;99.90
23289;DHT22;11813;50.834;4.280;2023-06-22T07:49:08;22.30;99.90
23289;DHT22;11813;50.834;4.280;2023-06-22T07:51:34;22.40;99.90
23289;DHT22;11813;50.834;4.280;2023-06-22T07:53:59;22.50;99.90
23289;DHT22;11813;50.834;4.280;2023-06-22T07:56:25;22.60;99.90
23289;DHT22;11813;50.834;4.280;2023-06-22T07:58:51;22.80;99.90
23289;DHT22;11813;50.834;4.280;2023-06-22T08:01:17;22.70;99.90
23289;DHT22;11813;50.834;4.280;2023-06-22T08:03:43;22.80;99.90
23289;DHT22;11813;50.834;4.280;2023-06-22T08:06:09;22.90;99.90
23289;DHT22;11813;50.834;4.280;2023-06-22T08:08:38;22.90;99.90
23289;DHT22;11813;50.834;4.280;2023-06-22T08:11:03;23.00;99.90
23289;DHT22;11813;50.834;4.280;2023-06-22T08:13:29;22.90;99.90
23289;DHT22;11813;50.834;4.280;2023-06-22T08:15:55;22.80;99.90
23289;DHT22;11813;50.834;4.280;2023-06-22T08:18:20;22.70;99.90
23289;DHT22;11813;50.834;4.280;2023-06-22T08:20:46;22.60;99.90
23289;DHT22;11813;50.834;4.280;2023-06-22T08:23:12;22.50;99.90
23289;DHT22;11813;50.834;4.280;2023-06-22T08:25:37;22.70;99.90
23289;DHT22;11813;50.834;4.280;2023-06-22T08:28:04;22.60;99.90
23289;DHT22;11813;50.834;4.280;2023-06-22T08:30:30;22.50;99.90
23289;DHT22;11813;50.834;4.280;2023-06-22T08:32:55;22.60;99.90
23289;DHT22;11813;50.834;4.280;2023-06-22T08:35:24;22.60;99.90
23289;DHT22;11813;50.834;4.280;2023-06-22T08:37:50;22.70;99.90
23289;DHT22;11813;50.834;4.280;2023-06-22T08:40:20;22.70;99.90
23289;DHT22;11813;50.834;4.280;2023-06-22T08:42:58;22.60;99.90
23289;DHT22;11813;50.834;4.280;2023-06-22T08:45:23;22.70;99.90
23289;DHT22;11813;50.834;4.280;2023-06-22T08:47:49;22.70;99.90
23289;DHT22;11813;50.834;4.280;2023-06-22T08:50:15;22.80;99.90
23289;DHT22;11813;50.834;4.280;2023-06-22T08:52:40;22.60;99.90
23289;DHT22;11813;50.834;4.280;2023-06-22T08:55:11;22.60;99.90
23289;DHT22;11813;50.834;4.280;2023-06-22T08:57:36;22.60;99.90
23289;DHT22;11813;50.834;4.280;2023-06-22T09:00:06;22.70;99.90
23289;DHT22;11813;50.834;4.280;2023-06-22T09:02:36;22.50;99.90
23289;DHT22;11813;50.834;4.280;2023-06-22T09:05:03;22.50;99.90
23289;DHT22;11813;50.834;4.280;2023-06-22T09:07:28;22.50;99.90
23289;DHT22;11813;50.834;4.280;2023-06-22T09:09:55;22.60;99.90
23289;DHT22;11813;50.834;4.280;2023-06-22T09:12:21;22.40;99.90
23289;DHT22;11813;50.834;4.280;2023-06-22T09:14:51;22.50;99.90
23289;DHT22;11813;50.834;4.280;2023-06-22T09:17:16;22.60;99.90
23289;DHT22;11813;50.834;4.280;2023-06-22T09:19:42;22.50;99.90
23289;DHT22;11813;50.834;4.280;2023-06-22T09:22:08;22.50;99.90
23289;DHT22;11813;50.834;4.280;2023-06-22T09:24:33;22.50;99.90
23289;DHT22;11813;50.834;4.280;2023-06-22T09:26:59;22.50;99.90
23289;DHT22;11813;50.834;4.280;2023-06-22T09:29:25;22.30;99.90
23289;DHT22;11813;50.834;4.280;2023-06-22T09:31:50;22.40;99.90
23289;DHT22;11813;50.834;4.280;2023-06-22T09:34:16;22.50;99.90
23289;DHT22;11813;50.834;4.280;2023-06-22T09:36:46;22.60;99.90
23289;DHT22;11813;50.834;4.280;2023-06-22T09:39:11;22.70;99.90
23289;DHT22;11813;50.834;4.280;2023-06-22T09:41:37;22.70;99.90
23289;DHT22;11813;50.834;4.280;2023-06-22T09:44:02;22.70;99.90
23289;DHT22;11813;50.834;4.280;2023-06-22T09:46:28;22.70;99.90
23289;DHT22;11813;50.834;4.280;2023-06-22T09:48:54;22.80;99.90
23289;DHT22;11813;50.834;4.280;2023-06-22T09:51:19;22.80;99.90
23289;DHT22;11813;50.834;4.280;2023-06-22T09:53:47;22.80;99.90
23289;DHT22;11813;50.834;4.280;2023-06-22T09:56:13;22.50;99.90
23289;DHT22;11813;50.834;4.280;2023-06-22T09:58:44;22.20;99.90
23289;DHT22;11813;50.834;4.280;2023-06-22T10:01:10;21.90;99.90
23289;DHT22;11813;50.834;4.280;2023-06-22T10:03:37;21.70;99.90
23289;DHT22;11813;50.834;4.280;2023-06-22T10:06:03;21.50;99.90
23289;DHT22;11813;50.834;4.280;2023-06-22T10:08:28;21.20;99.90
23289;DHT22;11813;50.834;4.280;2023-06-22T10:10:54;21.20;99.90
23289;DHT22;11813;50.834;4.280;2023-06-22T10:13:20;21.10;99.90
23289;DHT22;11813;50.834;4.280;2023-06-22T10:15:45;21.00;99.90
23289;DHT22;11813;50.834;4.280;2023-06-22T10:18:15;20.80;99.90
23289;DHT22;11813;50.834;4.280;2023-06-22T10:20:41;20.80;99.90
23289;DHT22;11813;50.834;4.280;2023-06-22T10:23:07;20.40;99.90
23289;DHT22;11813;50.834;4.280;2023-06-22T10:25:32;20.20;99.90
23289;DHT22;11813;50.834;4.280;2023-06-22T10:27:58;20.10;99.90
23289;DHT22;11813;50.834;4.280;2023-06-22T10:30:24;20.00;99.90
23289;DHT22;11813;50.834;4.280;2023-06-22T10:32:49;19.90;99.90
23289;DHT22;11813;50.834;4.280;2023-06-22T10:35:15;20.00;99.90
23289;DHT22;11813;50.834;4.280;2023-06-22T10:37:45;19.90;99.90
23289;DHT22;11813;50.834;4.280;2023-06-22T10:40:15;19.80;99.90
23289;DHT22;11813;50.834;4.280;2023-06-22T10:42:41;19.80;99.90
23289;DHT22;11813;50.834;4.280;2023-06-22T10:45:08;19.80;99.90
23289;DHT22;11813;50.834;4.280;2023-06-22T10:47:34;19.70;99.90
23289;DHT22;11813;50.834;4.280;2023-06-22T10:50:00;19.70;99.90
23289;DHT22;11813;50.834;4.280;2023-06-22T10:52:26;19.70;99.90
23289;DHT22;11813;50.834;4.280;2023-06-22T10:54:51;19.80;99.90
23289;DHT22;11813;50.834;4.280;2023-06-22T10:57:18;19.80;99.90
23289;DHT22;11813;50.834;4.280;2023-06-22T10:59:43;19.80;99.90
23289;DHT22;11813;50.834;4.280;2023-06-22T11:02:09;19.80;99.90
23289;DHT22;11813;50.834;4.280;2023-06-22T11:04:34;19.80;99.90
23289;DHT22;11813;50.834;4.280;2023-06-22T11:07:00;19.90;99.90
23289;DHT22;11813;50.834;4.280;2023-06-22T11:09:26;19.90;99.90
23289;DHT22;11813;50.834;4.280;2023-06-22T11:11:52;20.00;99.90
23289;DHT22;11813;50.834;4.280;2023-06-22T11:14:21;19.90;99.90
23289;DHT22;11813;50.834;4.280;2023-06-22T11:16:47;19.80;99.90
23289;DHT22;11813;50.834;4.280;2023-06-22T11:19:13;19.80;99.90
23289;DHT22;11813;50.834;4.280;2023-06-22T11:21:39;19.90;99.90
23289;DHT22;11813;50.834;4.280;2023-06-22T11:24:05;20.00;99.90
23289;DHT22;11813;50.834;4.280;2023-06-22T11:26:30;20.00;99.90
23289;DHT22;11813;50.834;4.280;2023-06-22T11:28:57;19.90;99.90
23289;DHT22;11813;50.834;4.280;2023-06-22T11:31:23;20.00;99.90
23289;DHT22;11813;50.834;4.280;2023-06-22T11:33:48;20.00;99.90
23289;DHT22;11813;50.834;4.280;2023-06-22T11:36:15;20.00;99.90
23289;DHT22;11813;50.834;4.280;2023-06-22T11:38:41;20.00;99.90
23289;DHT22;11813;50.834;4.280;2023-06-22T11:41:08;20.00;99.90
23289;DHT22;11813;50.834;4.280;2023-06-22T11:43:34;19.90;99.90
23289;DHT22;11813;50.834;4.280;2023-06-22T11:46:02;19.90;99.90
23289;DHT22;11813;50.834;4.280;2023-06-22T11:48:28;20.00;99.90
23289;DHT22;11813;50.834;4.280;2023-06-22T11:50:53;20.10;99.90
23289;DHT22;11813;50.834;4.280;2023-06-22T11:53:21;20.00;99.90
23289;DHT22;11813;50.834;4.280;2023-06-22T11:55:47;20.10;99.90
23289;DHT22;11813;50.834;4.280;2023-06-22T11:58:14;20.10;99.90
23289;DHT22;11813;50.834;4.280;2023-06-22T12:00:40;20.10;99.90
23289;DHT22;11813;50.834;4.280;2023-06-22T12:03:05;20.20;99.90
23289;DHT22;11813;50.834;4.280;2023-06-22T12:05:31;20.30;99.90
23289;DHT22;11813;50.834;4.280;2023-06-22T12:07:56;20.30;99.90
23289;DHT22;11813;50.834;4.280;2023-06-22T12:10:22;20.20;99.90
23289;DHT22;11813;50.834;4.280;2023-06-22T12:12:48;20.30;99.90
23289;DHT22;11813;50.834;4.280;2023-06-22T12:15:14;20.20;99.90
23289;DHT22;11813;50.834;4.280;2023-06-22T12:17:40;20.30;99.90
23289;DHT22;11813;50.834;4.280;2023-06-22T12:20:06;20.20;99.90
23289;DHT22;11813;50.834;4.280;2023-06-22T12:22:33;20.20;99.90
23289;DHT22;11813;50.834;4.280;2023-06-22T12:24:58;20.20;99.90
23289;DHT22;11813;50.834;4.280;2023-06-22T12:27:25;20.10;99.90
23289;DHT22;11813;50.834;4.280;2023-06-22T12:29:50;20.10;99.90
23289;DHT22;11813;50.834;4.280;2023-06-22T12:32:16;20.10;99.90
23289;DHT22;11813;50.834;4.280;2023-06-22T12:34:45;20.10;99.90
23289;DHT22;11813;50.834;4.280;2023-06-22T12:37:10;20.10;99.90
23289;DHT22;11813;50.834;4.280;2023-06-22T12:39:36;20.10;99.90
23289;DHT22;11813;50.834;4.280;2023-06-22T12:42:02;20.10;99.90
23289;DHT22;11813;50.834;4.280;2023-06-22T12:44:28;20.00;99.90
23289;DHT22;11813;50.834;4.280;2023-06-22T12:46:53;20.10;99.90
23289;DHT22;11813;50.834;4.280;2023-06-22T12:49:19;20.10;99.90
23289;DHT22;11813;50.834;4.280;2023-06-22T12:51:45;20.10;99.90
23289;DHT22;11813;50.834;4.280;2023-06-22T12:54:11;20.00;99.90
23289;DHT22;11813;50.834;4.280;2023-06-22T12:56:37;20.10;99.90
23289;DHT22;11813;50.834;4.280;2023-06-22T12:59:06;20.00;99.90
23289;DHT22;11813;50.834;4.280;2023-06-22T13:01:32;19.90;99.90
23289;DHT22;11813;50.834;4.280;2023-06-22T13:04:00;19.90;99.90
23289;DHT22;11813;50.834;4.280;2023-06-22T13:06:26;19.80;99.90
23289;DHT22;11813;50.834;4.280;2023-06-22T13:08:51;19.80;99.90
23289;DHT22;11813;50.834;4.280;2023-06-22T13:11:17;19.70;99.90
23289;DHT22;11813;50.834;4.280;2023-06-22T13:13:44;19.60;99.90
23289;DHT22;11813;50.834;4.280;2023-06-22T13:16:10;19.80;99.90
23289;DHT22;11813;50.834;4.280;2023-06-22T13:18:35;19.70;99.90
23289;DHT22;11813;50.834;4.280;2023-06-22T13:21:04;19.70;99.90
23289;DHT22;11813;50.834;4.280;2023-06-22T13:23:30;19.70;99.90
23289;DHT22;11813;50.834;4.280;2023-06-22T13:25:58;19.70;99.90
23289;DHT22;11813;50.834;4.280;2023-06-22T13:28:23;19.80;99.90
23289;DHT22;11813;50.834;4.280;2023-06-22T13:30:49;19.80;99.90
23289;DHT22;11813;50.834;4.280;2023-06-22T13:33:15;19.70;99.90
23289;DHT22;11813;50.834;4.280;2023-06-22T13:35:40;19.70;99.90
23289;DHT22;11813;50.834;4.280;2023-06-22T13:38:08;19.60;99.90
23289;DHT22;11813;50.834;4.280;2023-06-22T13:40:34;19.60;99.90
23289;DHT22;11813;50.834;4.280;2023-06-22T13:43:00;19.60;99.90
23289;DHT22;11813;50.834;4.280;2023-06-22T13:45:26;19.60;99.90
23289;DHT22;11813;50.834;4.280;2023-06-22T13:47:52;19.60;99.90
23289;DHT22;11813;50.834;4.280;2023-06-22T13:50:17;19.60;99.90
23289;DHT22;11813;50.834;4.280;2023-06-22T13:52:43;19.60;99.90
23289;DHT22;11813;50.834;4.280;2023-06-22T13:55:09;19.50;99.90
23289;DHT22;11813;50.834;4.280;2023-06-22T13:57:35;19.60;99.90
23289;DHT22;11813;50.834;4.280;2023-06-22T14:00:01;19.50;99.90
23289;DHT22;11813;50.834;4.280;2023-06-22T14:02:28;19.40;99.90
23289;DHT22;11813;50.834;4.280;2023-06-22T14:04:53;19.30;99.90
23289;DHT22;11813;50.834;4.280;2023-06-22T14:07:19;19.30;99.90
23289;DHT22;11813;50.834;4.280;2023-06-22T14:09:46;19.30;99.90
23289;DHT22;11813;50.834;4.280;2023-06-22T14:12:12;19.30;99.90
23289;DHT22;11813;50.834;4.280;2023-06-22T14:14:37;19.20;99.90
23289;DHT22;11813;50.834;4.280;2023-06-22T14:17:04;19.30;99.90
23289;DHT22;11813;50.834;4.280;2023-06-22T14:19:29;19.30;99.90
23289;DHT22;11813;50.834;4.280;2023-06-22T14:21:55;19.30;99.90
23289;DHT22;11813;50.834;4.280;2023-06-22T14:24:22;19.30;99.90
23289;DHT22;11813;50.834;4.280;2023-06-22T14:26:48;19.30;99.90
23289;DHT22;11813;50.834;4.280;2023-06-22T14:29:13;19.30;99.90
23289;DHT22;11813;50.834;4.280;2023-06-22T14:31:39;19.20;99.90
23289;DHT22;11813;50.834;4.280;2023-06-22T14:34:05;19.20;99.90
23289;DHT22;11813;50.834;4.280;2023-06-22T14:36:31;19.30;99.90
23289;DHT22;11813;50.834;4.280;2023-06-22T14:38:57;19.30;99.90
23289;DHT22;11813;50.834;4.280;2023-06-22T14:41:23;19.30;99.90
23289;DHT22;11813;50.834;4.280;2023-06-22T14:43:49;19.30;99.90
23289;DHT22;11813;50.834;4.280;2023-06-22T14:46:16;19.30;99.90
23289;DHT22;11813;50.834;4.280;2023-06-22T14:48:42;19.40;99.90
23289;DHT22;11813;50.834;4.280;2023-06-22T14:51:09;19.40;99.90
23289;DHT22;11813;50.834;4.280;2023-06-22T14:53:35;19.40;99.90
23289;DHT22;11813;50.834;4.280;2023-06-22T14:56:01;19.50;99.90
23289;DHT22;11813;50.834;4.280;2023-06-22T14:58:30;19.60;99.90
23289;DHT22;11813;50.834;4.280;2023-06-22T15:00:59;19.60;99.90
23289;DHT22;11813;50.834;4.280;2023-06-22T15:03:24;19.60;99.90
23289;DHT22;11813;50.834;4.280;2023-06-22T15:05:53;19.70;99.90
23289;DHT22;11813;50.834;4.280;2023-06-22T15:08:19;19.70;99.90
23289;DHT22;11813;50.834;4.280;2023-06-22T15:10:44;19.70;99.90
23289;DHT22;11813;50.834;4.280;2023-06-22T15:13:10;19.70;99.90
23289;DHT22;11813;50.834;4.280;2023-06-22T15:15:36;19.70;99.90
23289;DHT22;11813;50.834;4.280;2023-06-22T15:18:02;19.70;99.90
23289;DHT22;11813;50.834;4.280;2023-06-22T15:20:27;19.60;99.90
23289;DHT22;11813;50.834;4.280;2023-06-22T15:22:53;19.70;99.90
23289;DHT22;11813;50.834;4.280;2023-06-22T15:25:19;19.80;99.90
23289;DHT22;11813;50.834;4.280;2023-06-22T15:27:44;19.80;99.90